Más de esta sección

taf - aeronautica

                                                                                SANTO DOMINGO 04 DE DICIEMBRE 2022

                                                                                        AEROP. INT. LAS AMERICAS JFPG-

FTDR31 MDSD 041600Z              

TAF

TAF MDPP 041600Z 0418/0518 09010KT 9999 BKN020 PROB30 0418/0500 6000 -TSRA FEW016CB OVC018 BECMG 0501/0503 00000KT=

TAF MDST 041600Z 0418/0518 26004KT 9999 SCT018 PROB30 0418/0500 7000 -RA BKN016=  

TAF MDPC 041600Z 0418/0518 35015KT 9999 FEW020 PROB30 0419/0501 8000 SHRA SCT018=

TAF MDBH 041600Z 0418/0518 13014KT 9999 FEW022CB FEW025 SCT080=

TAF MDJB 041600Z 0418/0518 36010 9999 SCT020 PROB30 TEMPO 0419/0423 6000 -RA FEW014CB BKN016 FM 050000 00000KT 9999 FEW018 SCT300 BECMG 0513/0515 02005KT=

TAF MDSD 041600Z 0418/0518 36015KT 9999 SCT022 PROB30 0420/0502 7000 -RA  FEW014CB BKN015 BECMG 0502/0504 02010KT=

TAF MDLR 041600Z 0418/0518 36012KT 9999 SCT020 TEMPO 0419/0501 7000 -RA BKN018 BECMG 0501/0503 00000KT=

TAF MDCY 041600Z 0418/0518 04008KT 9999 SCT019 PROB30 0419/0500 8000 -RA SCT016 SCT070=

MDPP AEROPUERTO INTERNACIONAL LA UNION PUERTO PLATA

MDST AEROPUERTO INTERNACIONAL DE SANTIAGO

MDPC AEROPUERTO INTERNACIONAL PUNTA CANA

MDBH AEROPUERTO INTERNACIONAL DE BARAHONA

MDJB AEROPUERTO INTERNACIONAL JOAQUIN BALAGUER

MDSD AEROPUERTO INTERNACIONAL LAS AMERICAS

MDLR AEROPUERTO INTERNACIONAL LA ROMANA

MDCY AEROPUERTO INTERNACIONAL DE CATEY

 

JOSELINA NEPOMUCENO

MDPP // D.OGANDO

MDST // KATIUSKA VERAS

MDPC // JOVANNY RINCON.

MDJB // JORGE COLON

MDSD // JOSELINA

MDLR // AMOS ESPINOSA

MDCY // DIOSAIDA FERMIN